Time;durP1;ratioP1;P1;durP2;ratioP2;P2;SDS_P1;SDS_P2;PMS_P1;PMS_P2;Temp;Humidity;BMP_temperature;BMP_pressure;BME280_temperature;BME280_humidity;BME280_pressure;Samples;Min_cycle;Max_cycle;Signal;HPM_P1;HPM_P2
2023/12/19 00:02:25;;;;;;;5.60;1.42;;;;;;;;;;5093794;28;20073;-67
2023/12/19 00:04:50;;;;;;;6.22;1.50;;;;;;;;;;5094328;28;20028;-67
2023/12/19 00:07:15;;;;;;;2.20;1.23;;;;;;;;;;5093159;28;20107;-67
2023/12/19 00:09:42;;;;;;;3.15;1.50;;;;;;;;;;5093769;28;20067;-67
2023/12/19 00:12:08;;;;;;;4.30;1.73;;;;;;;;;;5092981;28;20040;-68
2023/12/19 00:14:33;;;;;;;5.82;1.58;;;;;;;;;;5093679;28;20047;-67
2023/12/19 00:16:59;;;;;;;2.17;1.13;;;;;;;;;;5075084;28;20403;-67
2023/12/19 00:19:24;;;;;;;4.25;1.20;;;;;;;;;;5093885;28;20040;-67
2023/12/19 00:21:50;;;;;;;3.78;1.10;;;;;;;;;;5092691;28;20035;-68
2023/12/19 00:24:15;;;;;;;2.38;1.05;;;;;;;;;;5074695;28;20040;-67
2023/12/19 00:26:40;;;;;;;4.65;1.10;;;;;;;;;;5093556;28;20043;-68
2023/12/19 00:29:06;;;;;;;3.65;1.00;;;;;;;;;;5093144;28;20031;-67
2023/12/19 00:31:31;;;;;;;4.13;0.98;;;;;;;;;;5093584;28;20456;-67
2023/12/19 00:33:57;;;;;;;5.25;0.98;;;;;;;;;;5093655;28;20054;-68
2023/12/19 00:36:23;;;;;;;7.18;1.10;;;;;;;;;;5090544;28;20130;-67
2023/12/19 00:38:49;;;;;;;1.38;0.60;;;;;;;;;;5093121;28;20483;-68
2023/12/19 00:41:17;;;;;;;1.65;0.75;;;;;;;;;;5093723;28;20054;-67
2023/12/19 00:43:43;;;;;;;2.63;1.00;;;;;;;;;;5074672;28;20096;-67
2023/12/19 00:46:09;;;;;;;2.92;0.70;;;;;;;;;;5093288;28;20547;-68
2023/12/19 00:48:34;;;;;;;2.53;0.80;;;;;;;;;;5092728;28;20047;-67
2023/12/19 00:50:59;;;;;;;2.25;0.80;;;;;;;;;;5092344;28;20047;-67
2023/12/19 00:53:25;;;;;;;4.28;0.77;;;;;;;;;;5092504;28;20092;-67
2023/12/19 00:55:50;;;;;;;1.70;0.65;;;;;;;;;;5093341;28;20036;-68
2023/12/19 00:58:15;;;;;;;1.48;0.70;;;;;;;;;;5091762;28;20032;-68
2023/12/19 01:00:41;;;;;;;2.00;0.65;;;;;;;;;;5090796;28;20455;-67
2023/12/19 01:03:06;;;;;;;1.15;0.70;;;;;;;;;;5092631;28;20032;-67
2023/12/19 01:05:31;;;;;;;4.30;0.90;;;;;;;;;;5074090;28;20046;-68
2023/12/19 01:07:56;;;;;;;2.97;0.90;;;;;;;;;;5092186;28;20032;-67
2023/12/19 01:10:22;;;;;;;1.33;0.70;;;;;;;;;;5092831;28;20110;-67
2023/12/19 01:12:47;;;;;;;4.18;0.90;;;;;;;;;;5092114;28;20495;-67
2023/12/19 01:15:13;;;;;;;1.70;0.80;;;;;;;;;;5092308;28;20536;-68
2023/12/19 01:17:38;;;;;;;6.47;1.10;;;;;;;;;;5074197;28;20040;-67
2023/12/19 01:20:04;;;;;;;4.22;0.80;;;;;;;;;;5092016;28;20043;-68
2023/12/19 01:22:29;;;;;;;3.30;0.93;;;;;;;;;;5091833;28;20036;-67
2023/12/19 01:24:55;;;;;;;2.55;0.80;;;;;;;;;;5092740;28;20024;-68
2023/12/19 01:27:21;;;;;;;2.10;0.90;;;;;;;;;;5092055;28;20089;-67
2023/12/19 01:29:46;;;;;;;5.57;1.00;;;;;;;;;;5092245;28;20039;-68
2023/12/19 01:32:11;;;;;;;2.10;0.90;;;;;;;;;;5092261;28;20032;-68
2023/12/19 01:34:37;;;;;;;3.30;0.82;;;;;;;;;;5092390;28;20089;-67
2023/12/19 01:37:02;;;;;;;4.18;0.90;;;;;;;;;;5091670;28;20040;-68
2023/12/19 01:39:27;;;;;;;1.35;0.70;;;;;;;;;;5091956;28;20036;-67
2023/12/19 01:41:53;;;;;;;4.18;0.90;;;;;;;;;;5092008;28;20036;-67
2023/12/19 01:44:19;;;;;;;1.60;0.75;;;;;;;;;;5091654;28;20044;-67
2023/12/19 01:46:45;;;;;;;1.67;0.80;;;;;;;;;;5092084;28;20032;-67
2023/12/19 01:49:11;;;;;;;4.53;0.98;;;;;;;;;;5073621;28;20056;-68
2023/12/19 01:51:36;;;;;;;2.40;0.90;;;;;;;;;;5091563;28;20604;-67
2023/12/19 01:54:03;;;;;;;3.97;1.02;;;;;;;;;;5091504;28;20040;-67
2023/12/19 01:56:31;;;;;;;2.83;0.85;;;;;;;;;;5091822;28;20067;-68
2023/12/19 01:58:56;;;;;;;4.15;1.27;;;;;;;;;;5073487;28;20032;-67
2023/12/19 02:01:21;;;;;;;3.00;1.30;;;;;;;;;;5092014;28;20530;-67
2023/12/19 02:03:47;;;;;;;3.65;1.40;;;;;;;;;;5091311;28;20119;-68
2023/12/19 02:06:14;;;;;;;2.50;0.98;;;;;;;;;;5090545;28;20491;-67
2023/12/19 02:08:39;;;;;;;3.35;1.23;;;;;;;;;;5091189;28;20043;-68
2023/12/19 02:11:04;;;;;;;4.78;1.20;;;;;;;;;;5091632;28;20032;-68
2023/12/19 02:13:30;;;;;;;4.13;1.30;;;;;;;;;;5091256;28;20119;-67
2023/12/19 02:15:55;;;;;;;4.15;1.30;;;;;;;;;;5073417;28;20040;-68
2023/12/19 02:18:21;;;;;;;3.95;1.38;;;;;;;;;;5091284;28;20068;-68
2023/12/19 02:20:47;;;;;;;3.95;1.33;;;;;;;;;;5090816;28;20662;-67
2023/12/19 02:23:13;;;;;;;3.55;1.40;;;;;;;;;;5091340;28;20048;-67
2023/12/19 02:25:39;;;;;;;2.83;1.30;;;;;;;;;;5091418;28;20043;-67
2023/12/19 02:28:05;;;;;;;3.13;1.23;;;;;;;;;;5072773;28;20028;-68
2023/12/19 02:30:31;;;;;;;2.20;1.33;;;;;;;;;;5073027;28;20099;-67
2023/12/19 02:32:58;;;;;;;7.05;1.40;;;;;;;;;;5091100;28;20064;-67
2023/12/19 02:35:24;;;;;;;3.33;1.30;;;;;;;;;;5090582;28;20540;-68
2023/12/19 02:37:49;;;;;;;4.18;1.40;;;;;;;;;;5091149;28;20031;-67
2023/12/19 02:40:14;;;;;;;3.03;1.08;;;;;;;;;;5090836;28;20387;-68
2023/12/19 02:42:41;;;;;;;2.67;1.00;;;;;;;;;;5090718;28;20043;-67
2023/12/19 02:45:08;;;;;;;5.55;1.33;;;;;;;;;;5090596;28;20385;-68
2023/12/19 02:47:33;;;;;;;5.22;1.55;;;;;;;;;;5090792;28;20044;-67
2023/12/19 02:49:59;;;;;;;2.25;0.93;;;;;;;;;;5090627;28;20039;-68
2023/12/19 02:52:24;;;;;;;3.30;1.05;;;;;;;;;;5090317;28;20036;-67
2023/12/19 02:54:50;;;;;;;4.00;1.10;;;;;;;;;;5072760;28;20062;-67
2023/12/19 02:57:15;;;;;;;4.68;1.17;;;;;;;;;;5090398;28;20028;-67
2023/12/19 02:59:40;;;;;;;9.38;1.30;;;;;;;;;;5090699;28;20051;-67
2023/12/19 03:02:06;;;;;;;4.97;0.95;;;;;;;;;;5090229;28;20043;-68
2023/12/19 03:04:31;;;;;;;2.20;1.25;;;;;;;;;;5090575;28;20020;-67
2023/12/19 03:06:56;;;;;;;4.43;1.10;;;;;;;;;;5090311;28;20372;-67
2023/12/19 03:09:22;;;;;;;2.35;1.13;;;;;;;;;;5090645;28;20409;-68
2023/12/19 03:12:05;;;;;;;2.90;1.27;;;;;;;;;;5090381;28;20433;-67
2023/12/19 03:14:35;;;;;;;4.50;0.88;;;;;;;;;;5090514;28;20047;-67
2023/12/19 03:17:04;;;;;;;2.25;1.08;;;;;;;;;;5090433;28;20059;-68
2023/12/19 03:19:30;;;;;;;6.22;1.30;;;;;;;;;;5071489;28;20200;-68
2023/12/19 03:21:55;;;;;;;4.40;1.50;;;;;;;;;;5090047;28;20068;-68
2023/12/19 03:24:23;;;;;;;4.50;2.08;;;;;;;;;;5090300;28;20031;-68
2023/12/19 03:26:49;;;;;;;3.88;1.85;;;;;;;;;;5090035;28;20420;-67
2023/12/19 03:29:14;;;;;;;6.13;1.77;;;;;;;;;;5090223;28;20039;-67
2023/12/19 03:31:40;;;;;;;3.88;1.52;;;;;;;;;;5090364;28;20360;-67
2023/12/19 03:34:06;;;;;;;6.60;1.80;;;;;;;;;;5089737;28;20055;-67
2023/12/19 03:36:32;;;;;;;9.93;2.17;;;;;;;;;;5090234;28;20038;-67
2023/12/19 03:38:57;;;;;;;5.13;2.08;;;;;;;;;;5055119;28;20039;-68
2023/12/19 03:41:22;;;;;;;9.60;2.15;;;;;;;;;;5090188;28;20032;-68
2023/12/19 03:43:48;;;;;;;4.97;2.17;;;;;;;;;;5064744;28;20405;-67
2023/12/19 03:46:14;;;;;;;6.43;1.98;;;;;;;;;;5049948;28;20037;-67
2023/12/19 03:48:40;;;;;;;7.05;2.33;;;;;;;;;;5049455;28;20043;-68
2023/12/19 03:51:07;;;;;;;10.95;2.42;;;;;;;;;;5049557;28;20116;-67
2023/12/19 03:53:33;;;;;;;3.88;2.45;;;;;;;;;;5049696;28;20048;-67
2023/12/19 03:55:58;;;;;;;5.72;3.15;;;;;;;;;;5048848;28;20029;-68
2023/12/19 03:58:23;;;;;;;8.55;3.20;;;;;;;;;;5049561;28;20035;-68
2023/12/19 04:00:49;;;;;;;7.72;3.40;;;;;;;;;;5048704;28;20033;-67
2023/12/19 04:03:14;;;;;;;8.35;3.28;;;;;;;;;;5049272;28;20041;-68
2023/12/19 04:05:39;;;;;;;9.68;3.33;;;;;;;;;;5049698;28;20396;-67
2023/12/19 04:08:05;;;;;;;7.75;3.15;;;;;;;;;;5049737;28;20384;-68
2023/12/19 04:10:30;;;;;;;6.30;2.60;;;;;;;;;;5048453;28;20668;-68
2023/12/19 04:12:56;;;;;;;11.82;3.75;;;;;;;;;;5049531;28;20091;-68
2023/12/19 04:15:22;;;;;;;9.55;3.50;;;;;;;;;;5049824;28;20032;-67
2023/12/19 04:17:47;;;;;;;8.48;4.25;;;;;;;;;;5040686;28;20033;-68
2023/12/19 04:20:12;;;;;;;9.75;4.00;;;;;;;;;;5049049;28;20071;-67
2023/12/19 04:22:38;;;;;;;11.18;3.58;;;;;;;;;;5049499;28;20099;-68
2023/12/19 04:25:04;;;;;;;7.65;3.10;;;;;;;;;;5047868;28;20033;-67
2023/12/19 04:27:30;;;;;;;9.60;3.30;;;;;;;;;;5049354;28;20041;-68
2023/12/19 04:29:56;;;;;;;8.15;3.63;;;;;;;;;;5050787;28;20062;-68
2023/12/19 04:32:22;;;;;;;7.60;3.53;;;;;;;;;;5052898;28;20388;-67
2023/12/19 04:34:47;;;;;;;6.35;3.50;;;;;;;;;;5053253;28;20111;-68
2023/12/19 04:37:12;;;;;;;6.35;3.33;;;;;;;;;;5052539;28;20029;-67
2023/12/19 04:39:38;;;;;;;6.75;3.70;;;;;;;;;;5052928;28;20029;-67
2023/12/19 04:42:07;;;;;;;4.85;3.00;;;;;;;;;;5053100;28;20071;-68
2023/12/19 04:44:35;;;;;;;4.97;2.75;;;;;;;;;;5073059;28;20130;-68
2023/12/19 04:47:02;;;;;;;5.55;2.92;;;;;;;;;;5093074;28;20348;-68
2023/12/19 04:49:27;;;;;;;7.50;2.67;;;;;;;;;;5092491;28;20036;-68
2023/12/19 04:51:52;;;;;;;9.80;3.20;;;;;;;;;;5092871;28;20027;-68
2023/12/19 04:54:18;;;;;;;6.30;3.25;;;;;;;;;;5093034;28;20035;-67
2023/12/19 04:56:43;;;;;;;6.30;2.85;;;;;;;;;;5093041;28;20059;-68
2023/12/19 04:59:08;;;;;;;6.25;3.08;;;;;;;;;;5092855;28;20093;-68
2023/12/19 05:01:34;;;;;;;8.10;2.90;;;;;;;;;;5092735;28;20479;-68
2023/12/19 05:03:59;;;;;;;8.23;2.60;;;;;;;;;;5092495;28;20040;-68
2023/12/19 05:06:25;;;;;;;7.22;2.40;;;;;;;;;;5092719;28;20062;-67
2023/12/19 05:08:50;;;;;;;7.45;3.00;;;;;;;;;;5092357;28;20096;-68
2023/12/19 05:11:15;;;;;;;7.82;2.42;;;;;;;;;;5092637;28;20040;-67
2023/12/19 05:13:41;;;;;;;8.70;2.70;;;;;;;;;;5091941;28;20429;-67
2023/12/19 05:16:17;;;;;;;4.13;2.42;;;;;;;;;;5074556;28;20028;-67
2023/12/19 05:18:42;;;;;;;13.57;3.10;;;;;;;;;;5071302;28;20040;-67
2023/12/19 05:21:09;;;;;;;5.65;2.65;;;;;;;;;;5074004;28;20420;-68
2023/12/19 05:23:38;;;;;;;5.55;2.53;;;;;;;;;;5092297;28;20043;-67
2023/12/19 05:26:04;;;;;;;4.85;2.80;;;;;;;;;;5092229;28;20688;-68
2023/12/19 05:28:30;;;;;;;8.00;2.78;;;;;;;;;;5091699;28;20459;-67
2023/12/19 05:30:56;;;;;;;8.52;2.85;;;;;;;;;;5092423;28;20032;-68
2023/12/19 05:33:25;;;;;;;6.22;2.63;;;;;;;;;;5092203;28;20066;-67
2023/12/19 05:35:51;;;;;;;7.53;2.70;;;;;;;;;;5091188;28;20032;-68
2023/12/19 05:38:17;;;;;;;11.77;2.60;;;;;;;;;;5073815;28;20032;-68
2023/12/19 05:40:42;;;;;;;25.52;2.72;;;;;;;;;;5091906;28;20113;-67
2023/12/19 05:43:08;;;;;;;9.60;2.67;;;;;;;;;;5091476;28;20536;-68
2023/12/19 05:45:34;;;;;;;9.07;2.75;;;;;;;;;;5091656;28;20060;-67
2023/12/19 05:47:59;;;;;;;4.57;2.65;;;;;;;;;;5091419;28;20032;-68
2023/12/19 05:50:24;;;;;;;6.65;2.70;;;;;;;;;;5073593;28;20040;-67
2023/12/19 05:52:50;;;;;;;6.43;1.23;;;;;;;;;;5091323;28;20044;-68
2023/12/19 05:55:15;;;;;;;5.00;1.50;;;;;;;;;;5073821;28;20047;-68
2023/12/19 05:57:41;;;;;;;2.70;1.10;;;;;;;;;;5091440;28;20399;-68
2023/12/19 06:00:07;;;;;;;1.45;0.80;;;;;;;;;;5091633;28;20040;-68
2023/12/19 06:02:32;;;;;;;7.18;0.98;;;;;;;;;;5091324;28;20387;-68
2023/12/19 06:05:00;;;;;;;2.45;0.70;;;;;;;;;;5091771;28;20020;-68
2023/12/19 06:07:25;;;;;;;0.65;0.30;;;;;;;;;;5091295;28;20027;-67
2023/12/19 06:09:51;;;;;;;0.47;0.30;;;;;;;;;;5091599;28;20044;-68
2023/12/19 06:12:17;;;;;;;0.80;0.40;;;;;;;;;;5090802;28;20192;-68
2023/12/19 06:14:43;;;;;;;1.25;0.40;;;;;;;;;;5087110;28;20661;-68
2023/12/19 06:17:08;;;;;;;1.77;0.60;;;;;;;;;;5089971;28;20097;-68
2023/12/19 06:19:33;;;;;;;1.05;0.30;;;;;;;;;;5091240;28;20052;-68
2023/12/19 06:21:59;;;;;;;0.68;0.30;;;;;;;;;;5090515;28;20396;-68
2023/12/19 06:24:24;;;;;;;0.90;0.30;;;;;;;;;;5090638;28;20137;-68
2023/12/19 06:26:50;;;;;;;5.18;0.47;;;;;;;;;;5090924;28;20032;-68
2023/12/19 06:29:15;;;;;;;1.42;0.30;;;;;;;;;;5091169;28;20119;-68
2023/12/19 06:31:44;;;;;;;1.23;0.40;;;;;;;;;;5091291;28;20074;-67
2023/12/19 06:34:09;;;;;;;1.63;0.50;;;;;;;;;;5073118;28;20046;-68
2023/12/19 06:36:37;;;;;;;1.27;0.63;;;;;;;;;;5091168;28;20107;-68
2023/12/19 06:39:03;;;;;;;4.07;0.40;;;;;;;;;;5090672;28;20488;-67
2023/12/19 06:41:28;;;;;;;3.33;0.60;;;;;;;;;;5091157;28;20028;-68
2023/12/19 06:43:53;;;;;;;2.80;0.50;;;;;;;;;;5091031;28;20048;-67
2023/12/19 06:46:19;;;;;;;4.78;0.52;;;;;;;;;;5090762;28;20629;-68
2023/12/19 06:48:44;;;;;;;3.80;0.40;;;;;;;;;;5072473;28;20032;-68
2023/12/19 06:51:10;;;;;;;2.42;0.30;;;;;;;;;;5090497;28;20036;-68
2023/12/19 06:53:35;;;;;;;2.28;0.30;;;;;;;;;;5090165;28;20044;-68
2023/12/19 06:56:01;;;;;;;0.73;0.40;;;;;;;;;;5090882;28;20040;-68
2023/12/19 06:58:26;;;;;;;2.28;0.40;;;;;;;;;;5090708;28;20039;-68
2023/12/19 07:00:51;;;;;;;0.95;0.32;;;;;;;;;;5090639;28;20044;-68
2023/12/19 07:03:18;;;;;;;1.52;0.32;;;;;;;;;;5090343;28;20038;-68
2023/12/19 07:05:43;;;;;;;4.28;0.60;;;;;;;;;;5090715;28;20067;-68
2023/12/19 07:08:09;;;;;;;7.82;0.50;;;;;;;;;;5089877;28;20482;-68
2023/12/19 07:10:34;;;;;;;1.73;0.50;;;;;;;;;;5072547;28;20036;-68
2023/12/19 07:13:00;;;;;;;5.82;0.50;;;;;;;;;;5090422;28;20403;-68
2023/12/19 07:15:25;;;;;;;6.65;0.47;;;;;;;;;;5090348;28;20391;-67
2023/12/19 07:17:51;;;;;;;1.55;0.50;;;;;;;;;;5090398;28;20112;-68
2023/12/19 07:20:16;;;;;;;1.73;0.47;;;;;;;;;;5072198;28;20059;-68
2023/12/19 07:22:43;;;;;;;0.55;0.38;;;;;;;;;;5090147;28;20600;-68
2023/12/19 07:25:09;;;;;;;1.70;0.30;;;;;;;;;;5071432;28;20024;-68
2023/12/19 07:27:34;;;;;;;0.40;0.30;;;;;;;;;;5089401;28;20043;-67
2023/12/19 07:30:00;;;;;;;1.17;0.40;;;;;;;;;;5089285;28;20131;-68
2023/12/19 07:32:25;;;;;;;0.70;0.17;;;;;;;;;;5089647;28;20035;-68
2023/12/19 07:34:51;;;;;;;2.50;0.40;;;;;;;;;;5089989;28;20119;-68
2023/12/19 07:37:16;;;;;;;8.20;0.70;;;;;;;;;;5090069;28;20028;-68
2023/12/19 07:39:42;;;;;;;2.70;0.57;;;;;;;;;;5090271;28;20570;-68
2023/12/19 07:42:07;;;;;;;0.93;0.40;;;;;;;;;;5089608;28;20059;-68
2023/12/19 07:44:33;;;;;;;2.85;0.77;;;;;;;;;;5089736;28;20044;-68
2023/12/19 07:46:58;;;;;;;4.85;0.50;;;;;;;;;;5088343;28;20035;-68
2023/12/19 07:49:24;;;;;;;3.45;0.55;;;;;;;;;;5071838;28;20040;-68
2023/12/19 07:51:49;;;;;;;10.90;0.70;;;;;;;;;;5072002;28;20036;-68
2023/12/19 07:54:14;;;;;;;5.28;0.50;;;;;;;;;;5089652;28;20446;-68
2023/12/19 07:56:42;;;;;;;6.50;0.45;;;;;;;;;;5090337;28;20040;-68
2023/12/19 07:59:07;;;;;;;1.55;0.47;;;;;;;;;;5071601;28;20036;-68
2023/12/19 08:01:32;;;;;;;1.85;0.50;;;;;;;;;;5089998;28;20399;-68
2023/12/19 08:03:59;;;;;;;4.68;0.50;;;;;;;;;;5089865;28;20115;-68
2023/12/19 08:06:24;;;;;;;2.15;0.40;;;;;;;;;;5093294;28;20032;-68
2023/12/19 08:08:51;;;;;;;6.15;0.70;;;;;;;;;;5094077;28;20518;-68
2023/12/19 08:11:17;;;;;;;6.38;0.88;;;;;;;;;;5092952;28;20134;-68
2023/12/19 08:13:43;;;;;;;2.60;0.47;;;;;;;;;;5091744;28;20120;-68
2023/12/19 08:16:09;;;;;;;5.25;0.60;;;;;;;;;;5074799;28;20039;-68
2023/12/19 08:18:34;;;;;;;3.67;0.50;;;;;;;;;;5093491;28;20376;-68
2023/12/19 08:21:02;;;;;;;2.80;0.50;;;;;;;;;;5093414;28;20419;-68
2023/12/19 08:23:28;;;;;;;7.55;0.52;;;;;;;;;;5093689;28;20032;-68
2023/12/19 08:25:53;;;;;;;13.38;1.83;;;;;;;;;;5092990;28;20085;-68
2023/12/19 08:28:18;;;;;;;12.70;0.60;;;;;;;;;;5085313;28;20044;-68
2023/12/19 08:30:44;;;;;;;5.28;0.60;;;;;;;;;;5092489;28;20461;-68
2023/12/19 08:33:09;;;;;;;6.38;0.57;;;;;;;;;;5087386;28;20462;-68
2023/12/19 08:35:34;;;;;;;9.40;0.70;;;;;;;;;;5091976;28;20039;-68
2023/12/19 08:38:00;;;;;;;3.03;0.80;;;;;;;;;;5080057;28;20036;-68
2023/12/19 08:40:25;;;;;;;7.32;0.73;;;;;;;;;;5076476;28;20119;-68
2023/12/19 08:42:50;;;;;;;8.57;0.77;;;;;;;;;;5102143;28;20032;-68
2023/12/19 08:45:17;;;;;;;6.25;0.60;;;;;;;;;;5074113;28;20043;-68
2023/12/19 08:47:44;;;;;;;11.68;0.73;;;;;;;;;;5097403;28;20083;-68
2023/12/19 08:50:10;;;;;;;5.40;0.63;;;;;;;;;;5078108;28;20040;-68
2023/12/19 08:52:38;;;;;;;5.70;0.60;;;;;;;;;;5092629;28;20036;-68
2023/12/19 08:55:06;;;;;;;6.20;0.70;;;;;;;;;;5094803;28;20561;-68
2023/12/19 08:57:35;;;;;;;2.10;0.50;;;;;;;;;;5092328;28;20035;-68
2023/12/19 09:00:03;;;;;;;3.10;0.55;;;;;;;;;;5074765;28;20024;-68
2023/12/19 09:02:28;;;;;;;6.82;0.70;;;;;;;;;;5092846;28;20032;-67
2023/12/19 09:04:53;;;;;;;2.65;0.47;;;;;;;;;;5080099;28;20036;-68
2023/12/19 09:07:19;;;;;;;3.35;0.65;;;;;;;;;;5091560;28;20035;-68
2023/12/19 09:09:44;;;;;;;5.30;0.65;;;;;;;;;;5092163;28;20070;-68
2023/12/19 09:12:09;;;;;;;8.95;0.55;;;;;;;;;;5091000;28;20043;-68
2023/12/19 09:14:36;;;;;;;6.13;0.50;;;;;;;;;;5092399;28;20035;-68
2023/12/19 09:17:02;;;;;;;2.35;0.50;;;;;;;;;;5090319;28;20086;-67
2023/12/19 09:19:30;;;;;;;4.13;0.60;;;;;;;;;;5074702;28;20040;-68
2023/12/19 09:21:57;;;;;;;6.22;0.70;;;;;;;;;;5082718;28;20039;-68
2023/12/19 09:24:22;;;;;;;3.85;0.60;;;;;;;;;;5090642;28;20040;-67
2023/12/19 09:26:48;;;;;;;2.75;0.40;;;;;;;;;;5090373;28;20040;-68
2023/12/19 09:29:14;;;;;;;4.68;1.15;;;;;;;;;;5068682;28;20032;-68
2023/12/19 09:31:39;;;;;;;1.13;0.57;;;;;;;;;;5072635;28;20039;-67
2023/12/19 09:34:05;;;;;;;5.15;0.65;;;;;;;;;;5088405;28;20060;-67
2023/12/19 09:36:30;;;;;;;5.28;0.75;;;;;;;;;;5089640;28;20032;-68
2023/12/19 09:38:55;;;;;;;2.10;0.80;;;;;;;;;;5091174;28;20047;-69
2023/12/19 09:41:21;;;;;;;5.00;0.70;;;;;;;;;;5091547;28;20089;-69
2023/12/19 09:43:46;;;;;;;3.00;0.70;;;;;;;;;;5072928;28;20184;-68
2023/12/19 09:46:13;;;;;;;1.75;0.60;;;;;;;;;;5087761;28;20028;-68
2023/12/19 09:48:41;;;;;;;1.45;0.80;;;;;;;;;;5087914;28;20043;-68
2023/12/19 09:51:15;;;;;;;3.70;1.50;;;;;;;;;;5088677;28;20380;-68
2023/12/19 09:53:40;;;;;;;1.90;0.73;;;;;;;;;;5069772;28;20040;-67
2023/12/19 09:56:07;;;;;;;2.67;0.85;;;;;;;;;;5070148;28;20404;-68
2023/12/19 09:58:32;;;;;;;1.95;0.80;;;;;;;;;;5087429;28;20404;-68
2023/12/19 10:00:59;;;;;;;1.40;0.73;;;;;;;;;;5070177;28;20040;-68
2023/12/19 10:03:25;;;;;;;5.53;0.80;;;;;;;;;;5087047;28;20553;-68
2023/12/19 10:05:50;;;;;;;2.38;0.70;;;;;;;;;;5088512;28;20040;-68
2023/12/19 10:08:15;;;;;;;2.05;0.80;;;;;;;;;;5079680;28;20043;-68
2023/12/19 10:10:58;;;;;;;4.07;0.82;;;;;;;;;;5068458;28;20039;-68
2023/12/19 10:13:28;;;;;;;2.25;0.80;;;;;;;;;;5069301;28;20556;-69
2023/12/19 10:16:00;;;;;;;1.73;0.80;;;;;;;;;;5087270;28;20051;-68
2023/12/19 10:18:26;;;;;;;1.92;0.88;;;;;;;;;;5086078;28;20111;-68
2023/12/19 10:21:13;;;;;;;1.92;0.80;;;;;;;;;;5053825;28;20445;-68
2023/12/19 10:23:40;;;;;;;1.70;0.60;;;;;;;;;;5068733;28;20075;-68
2023/12/19 10:26:06;;;;;;;1.98;0.60;;;;;;;;;;5086628;28;20028;-68
2023/12/19 10:28:32;;;;;;;1.70;0.88;;;;;;;;;;5068315;28;20081;-68
2023/12/19 10:31:15;;;;;;;0.60;0.40;;;;;;;;;;5086747;28;20040;-68
2023/12/19 10:33:45;;;;;;;0.60;0.40;;;;;;;;;;5082593;28;20040;-68
2023/12/19 10:36:32;;;;;;;2.90;0.60;;;;;;;;;;5087930;28;20036;-68
2023/12/19 10:39:03;;;;;;;1.23;0.50;;;;;;;;;;5069013;28;20036;-68
2023/12/19 10:41:32;;;;;;;3.80;0.60;;;;;;;;;;5068576;28;20066;-68
2023/12/19 10:43:59;;;;;;;3.42;0.73;;;;;;;;;;5087290;28;20122;-68
2023/12/19 10:46:32;;;;;;;1.48;0.57;;;;;;;;;;5068726;28;20467;-68
2023/12/19 10:49:01;;;;;;;1.00;0.60;;;;;;;;;;5086169;28;20044;-68
2023/12/19 10:51:37;;;;;;;1.15;0.60;;;;;;;;;;5087396;28;20036;-68
2023/12/19 10:54:12;;;;;;;2.65;0.50;;;;;;;;;;5069233;28;20068;-68
2023/12/19 10:56:43;;;;;;;0.60;0.38;;;;;;;;;;5080431;28;20048;-68
2023/12/19 10:59:14;;;;;;;1.35;0.60;;;;;;;;;;5086885;28;20520;-68
2023/12/19 11:01:40;;;;;;;1.08;0.50;;;;;;;;;;5069090;28;20048;-68
2023/12/19 11:04:16;;;;;;;2.25;0.50;;;;;;;;;;5087099;28;20032;-68
2023/12/19 11:06:44;;;;;;;1.67;0.43;;;;;;;;;;5068917;28;20036;-68
2023/12/19 11:09:12;;;;;;;8.20;0.60;;;;;;;;;;5068332;28;20521;-68
2023/12/19 11:11:38;;;;;;;1.50;0.63;;;;;;;;;;5068686;28;20040;-68
2023/12/19 11:14:07;;;;;;;4.07;0.50;;;;;;;;;;5086068;28;20046;-68
2023/12/19 11:16:41;;;;;;;1.10;0.50;;;;;;;;;;5087566;28;20032;-68
2023/12/19 11:19:50;;;;;;;1.20;0.50;;;;;;;;;;5067353;28;20050;-68
2023/12/19 11:22:25;;;;;;;0.47;0.40;;;;;;;;;;5076597;28;20062;-68
2023/12/19 11:25:10;;;;;;;2.47;0.50;;;;;;;;;;5068915;28;20106;-68
2023/12/19 11:27:42;;;;;;;1.10;0.47;;;;;;;;;;5086720;28;20024;-67
2023/12/19 11:30:31;;;;;;;0.90;0.43;;;;;;;;;;5086366;28;20040;-68
2023/12/19 11:32:57;;;;;;;1.52;0.50;;;;;;;;;;5086182;28;20017;-68
2023/12/19 11:35:29;;;;;;;2.47;0.57;;;;;;;;;;5084549;28;20032;-67
2023/12/19 11:38:13;;;;;;;1.33;0.50;;;;;;;;;;5086035;28;20629;-68
2023/12/19 11:40:48;;;;;;;;;;;;;;;;;;5089123;28;20036;-68
2023/12/19 11:43:28;;;;;;;1.33;0.38;;;;;;;;;;5072506;28;19923;-68
2023/12/19 11:45:55;;;;;;;5.05;0.93;;;;;;;;;;5090481;28;20491;-68
2023/12/19 11:48:34;;;;;;;0.88;0.50;;;;;;;;;;5072593;28;20126;-68
2023/12/19 11:50:59;;;;;;;1.85;0.50;;;;;;;;;;5090627;28;20059;-68
2023/12/19 11:53:24;;;;;;;1.08;0.60;;;;;;;;;;5089567;28;20024;-68
2023/12/19 11:55:50;;;;;;;1.13;0.57;;;;;;;;;;5090360;28;20040;-68
2023/12/19 11:58:15;;;;;;;0.93;0.60;;;;;;;;;;5090188;28;20122;-67
2023/12/19 12:00:41;;;;;;;0.63;0.40;;;;;;;;;;5090668;28;20028;-68
2023/12/19 12:03:10;;;;;;;0.82;0.40;;;;;;;;;;5090144;28;20047;-68
2023/12/19 12:05:36;;;;;;;2.30;0.80;;;;;;;;;;5090425;28;20383;-68
2023/12/19 12:08:02;;;;;;;6.78;0.60;;;;;;;;;;5090833;28;20024;-68
2023/12/19 12:10:28;;;;;;;5.68;0.50;;;;;;;;;;5089464;28;20032;-68
2023/12/19 12:12:55;;;;;;;5.05;0.60;;;;;;;;;;5089859;28;20055;-68
2023/12/19 12:15:22;;;;;;;1.13;0.60;;;;;;;;;;5071200;28;20056;-68
2023/12/19 12:17:48;;;;;;;2.53;0.57;;;;;;;;;;5070777;28;20044;-68
2023/12/19 12:20:14;;;;;;;1.45;0.57;;;;;;;;;;5090848;28;20070;-68
2023/12/19 12:22:40;;;;;;;1.00;0.50;;;;;;;;;;5089658;28;20036;-68
2023/12/19 12:25:06;;;;;;;1.83;0.57;;;;;;;;;;5089854;28;20176;-68
2023/12/19 12:27:32;;;;;;;5.93;0.80;;;;;;;;;;5071786;28;20036;-67
2023/12/19 12:30:00;;;;;;;1.45;0.70;;;;;;;;;;5090201;28;20047;-68
2023/12/19 12:32:25;;;;;;;1.35;0.60;;;;;;;;;;5071580;28;20059;-68
2023/12/19 12:34:51;;;;;;;2.17;0.80;;;;;;;;;;5072538;28;20463;-68
2023/12/19 12:37:17;;;;;;;1.40;0.70;;;;;;;;;;5089669;28;20081;-68
2023/12/19 12:39:43;;;;;;;1.88;0.70;;;;;;;;;;5080054;28;20043;-68
2023/12/19 12:42:08;;;;;;;1.63;0.60;;;;;;;;;;5083780;28;20123;-68
2023/12/19 12:44:34;;;;;;;0.85;0.50;;;;;;;;;;5087035;28;20067;-68
2023/12/19 12:47:00;;;;;;;1.00;0.50;;;;;;;;;;5089368;28;20047;-68
2023/12/19 12:49:26;;;;;;;1.67;0.52;;;;;;;;;;5089592;28;20497;-68
2023/12/19 12:51:59;;;;;;;4.10;1.00;;;;;;;;;;5070440;28;20124;-68
2023/12/19 12:54:24;;;;;;;2.28;0.75;;;;;;;;;;5077322;28;21173;-68
2023/12/19 12:56:50;;;;;;;1.40;0.80;;;;;;;;;;5064298;28;20140;-68
2023/12/19 12:59:17;;;;;;;2.55;1.02;;;;;;;;;;5086019;28;20036;-68
2023/12/19 13:01:47;;;;;;;2.03;0.88;;;;;;;;;;5066058;28;20043;-68
2023/12/19 13:04:14;;;;;;;1.27;0.70;;;;;;;;;;5065716;28;20040;-68
2023/12/19 13:06:43;;;;;;;1.13;0.60;;;;;;;;;;5059138;28;20538;-68
2023/12/19 13:09:19;;;;;;;0.95;0.50;;;;;;;;;;5086063;28;20032;-68
2023/12/19 13:11:50;;;;;;;0.80;0.50;;;;;;;;;;5085560;28;20146;-68
2023/12/19 13:14:16;;;;;;;1.00;0.50;;;;;;;;;;5068888;28;20039;-68
2023/12/19 13:16:42;;;;;;;1.10;0.50;;;;;;;;;;5088822;28;20028;-68
2023/12/19 13:19:08;;;;;;;1.90;0.50;;;;;;;;;;5088495;28;20035;-68
2023/12/19 13:21:33;;;;;;;4.70;0.60;;;;;;;;;;5085084;28;20380;-68
2023/12/19 13:23:58;;;;;;;0.77;0.40;;;;;;;;;;5086615;28;20041;-68
2023/12/19 13:26:27;;;;;;;0.73;0.40;;;;;;;;;;5071351;28;20032;-68
2023/12/19 13:28:55;;;;;;;4.57;0.47;;;;;;;;;;5076054;28;20067;-68
2023/12/19 13:31:21;;;;;;;0.73;0.40;;;;;;;;;;5083703;28;20543;-68
2023/12/19 13:33:47;;;;;;;0.63;0.47;;;;;;;;;;5087990;28;20043;-68
2023/12/19 13:36:16;;;;;;;2.03;0.47;;;;;;;;;;5078795;28;20460;-69
2023/12/19 13:38:45;;;;;;;1.02;0.47;;;;;;;;;;5072668;28;20161;-68
2023/12/19 13:41:16;;;;;;;3.35;1.42;;;;;;;;;;5090044;28;20024;-68
2023/12/19 13:43:42;;;;;;;0.75;0.40;;;;;;;;;;5087922;28;20048;-68
2023/12/19 13:46:08;;;;;;;1.02;0.60;;;;;;;;;;5083370;28;20039;-68
2023/12/19 13:48:34;;;;;;;0.88;0.45;;;;;;;;;;5066778;28;20068;-68
2023/12/19 13:51:00;;;;;;;2.03;0.40;;;;;;;;;;5069915;28;20130;-68
2023/12/19 13:53:26;;;;;;;1.25;0.40;;;;;;;;;;5069141;28;20054;-68
2023/12/19 13:55:51;;;;;;;5.03;0.50;;;;;;;;;;5069673;28;20035;-68
2023/12/19 13:58:16;;;;;;;2.67;0.60;;;;;;;;;;5086515;28;20038;-68
2023/12/19 14:00:42;;;;;;;3.42;0.50;;;;;;;;;;5087411;28;20036;-68
2023/12/19 14:03:07;;;;;;;4.45;0.70;;;;;;;;;;5086314;28;20065;-68
2023/12/19 14:05:33;;;;;;;3.40;0.73;;;;;;;;;;5087120;28;20451;-68
2023/12/19 14:08:01;;;;;;;5.70;0.93;;;;;;;;;;5086171;28;20032;-68
2023/12/19 14:10:27;;;;;;;3.22;0.65;;;;;;;;;;5088043;28;20024;-67
2023/12/19 14:12:52;;;;;;;6.75;0.77;;;;;;;;;;5056868;28;20036;-68
2023/12/19 14:15:19;;;;;;;9.02;0.85;;;;;;;;;;5085786;28;20031;-68
2023/12/19 14:17:45;;;;;;;5.60;0.68;;;;;;;;;;5086270;28;20036;-68
2023/12/19 14:20:11;;;;;;;2.97;0.70;;;;;;;;;;5069657;28;20042;-68
2023/12/19 14:22:38;;;;;;;3.33;1.35;;;;;;;;;;5085637;28;20123;-68
2023/12/19 14:25:04;;;;;;;3.08;1.08;;;;;;;;;;5086957;28;20036;-68
2023/12/19 14:27:29;;;;;;;7.07;0.90;;;;;;;;;;5086736;28;20040;-67
2023/12/19 14:29:55;;;;;;;4.90;0.82;;;;;;;;;;5087589;28;20050;-68
2023/12/19 14:32:20;;;;;;;8.25;1.23;;;;;;;;;;5084566;28;20070;-68
2023/12/19 14:34:45;;;;;;;6.70;0.70;;;;;;;;;;5085106;28;20068;-68
2023/12/19 14:37:12;;;;;;;8.32;0.90;;;;;;;;;;5086063;28;20399;-68
2023/12/19 14:39:39;;;;;;;5.00;0.90;;;;;;;;;;5086402;28;20395;-67
2023/12/19 14:42:04;;;;;;;4.57;0.70;;;;;;;;;;5087119;28;20118;-68